Wellington, KS (67152)

4:28 PM CST on December 22, 2014 (GMT -0600)
Cherry Street | Change Station
CLOSE
Current Station
Personal Weather Station
Location: Wellington, KS
Elevation: 1224 ft
Nearby Weather Stations

Elev 1224 ft 37.27 °N, 97.39 °W | Updated 13 minutes ago

Partly Cloudy
Partly Cloudy
51.8 °F
Feels Like 51.8 °F
N
6.8
Wind Variable Wind from NNW

Today
High -- | Low -- °F
--% Chance of Precip.
Yesterday
High -- | Low -- °F
Precip. -- in
7:40 AM 5:16 PM
New Moon, 1% visible
Pressure 29.58 in
Visibility 10.0 miles
Clouds Few 3700 ft
Few 4700 ft
Dew Point 39 °F
Humidity 61%
Rainfall 0.05 in
Snow Depth Not available.
UV 1 out of 12
Pollen .10 out of 12
Air Quality Not available.
Flu Activity Not available.
METAR KWLD 222154Z AUTO 32010KT 10SM FEW037 FEW047 11/04 A2958 RMK AO2 SLP016 T01060044

More Conditions Fewer Conditions

Pressure 29.58 in
Visibility 10.0 miles
Clouds Few 3700 ft
Few 4700 ft
Dew Point 39 °F
Humidity 61%
Rainfall 0.05 in
Snow Depth Not available.
UV 1 out of 12
Pollen .10 out of 12
Air Quality Not available.
Flu Activity Not available.
METAR KWLD 222154Z AUTO 32010KT 10SM FEW037 FEW047 11/04 A2958 RMK AO2 SLP016 T01060044

More Conditions Fewer Conditions

10-Day Weather Forecast

Almanac

Astronomy

Dec. 22, 2014 Rise Set
Actual Time
Civil Twilight
Nautical Twilight
Astronomical Twilight
Moon
Length of Visible Light
Length of Day
Tomorrow will be .
, % of the Moon is Illuminated

Today's Extremes

State Highs State Lows

Community

WunderPhotos

Upload Photos

1,779,694 photos uploaded!

WunderBlogs® & News

Nearby

Air Quality

  Air Quality AQ Index Pollutant
Not available.

Snow Depth

Station Depth Elevation

Earthquake Activity

City Distance Mag. Time & Date
Minimum magnitude displayed is 2.5.

Coastal Water Temperatures

Place Temperature

Nearby Weather Stations